sensor_id;sensor_type;location;lat;lon;timestamp;pressure;altitude;pressure_sealevel;temperature;humidity
41886;BME280;27567;43.084;25.616;2022-11-15T00:01:52;98954.91;;;7.02;100.00
41886;BME280;27567;43.084;25.616;2022-11-15T00:04:36;98956.22;;;6.98;100.00
41886;BME280;27567;43.084;25.616;2022-11-15T00:07:20;98959.22;;;7.03;100.00
41886;BME280;27567;43.084;25.616;2022-11-15T00:10:04;98942.75;;;7.24;100.00
41886;BME280;27567;43.084;25.616;2022-11-15T00:12:48;98954.78;;;7.20;100.00
41886;BME280;27567;43.084;25.616;2022-11-15T00:15:38;98946.78;;;7.36;100.00
41886;BME280;27567;43.084;25.616;2022-11-15T00:18:22;98947.56;;;7.04;100.00
41886;BME280;27567;43.084;25.616;2022-11-15T00:21:13;98952.00;;;6.79;100.00
41886;BME280;27567;43.084;25.616;2022-11-15T00:23:58;98945.47;;;6.73;100.00
41886;BME280;27567;43.084;25.616;2022-11-15T00:26:42;98949.78;;;6.66;100.00
41886;BME280;27567;43.084;25.616;2022-11-15T00:29:26;98948.59;;;6.60;100.00
41886;BME280;27567;43.084;25.616;2022-11-15T00:32:10;98947.78;;;6.59;100.00
41886;BME280;27567;43.084;25.616;2022-11-15T00:34:54;98940.13;;;6.56;100.00
41886;BME280;27567;43.084;25.616;2022-11-15T00:37:38;98930.91;;;6.51;100.00
41886;BME280;27567;43.084;25.616;2022-11-15T00:40:22;98938.88;;;6.42;100.00
41886;BME280;27567;43.084;25.616;2022-11-15T00:43:06;98930.53;;;6.37;100.00
41886;BME280;27567;43.084;25.616;2022-11-15T00:45:50;98927.06;;;6.37;100.00
41886;BME280;27567;43.084;25.616;2022-11-15T00:48:34;98930.22;;;6.40;100.00
41886;BME280;27567;43.084;25.616;2022-11-15T00:51:18;98935.88;;;6.37;100.00
41886;BME280;27567;43.084;25.616;2022-11-15T00:54:02;98928.78;;;6.62;100.00
41886;BME280;27567;43.084;25.616;2022-11-15T00:56:46;98934.78;;;6.65;100.00
41886;BME280;27567;43.084;25.616;2022-11-15T00:59:30;98923.78;;;6.51;100.00
41886;BME280;27567;43.084;25.616;2022-11-15T01:02:14;98927.25;;;6.43;100.00
41886;BME280;27567;43.084;25.616;2022-11-15T01:04:58;98927.59;;;6.49;100.00
41886;BME280;27567;43.084;25.616;2022-11-15T01:07:42;98926.75;;;6.48;100.00
41886;BME280;27567;43.084;25.616;2022-11-15T01:10:26;98919.94;;;6.45;100.00
41886;BME280;27567;43.084;25.616;2022-11-15T01:13:10;98920.91;;;6.44;100.00
41886;BME280;27567;43.084;25.616;2022-11-15T01:15:54;98908.59;;;6.43;100.00
41886;BME280;27567;43.084;25.616;2022-11-15T01:18:38;98923.13;;;6.57;100.00
41886;BME280;27567;43.084;25.616;2022-11-15T01:21:22;98914.91;;;6.42;100.00
41886;BME280;27567;43.084;25.616;2022-11-15T01:24:07;98915.09;;;6.49;100.00
41886;BME280;27567;43.084;25.616;2022-11-15T01:26:51;98908.06;;;6.40;100.00
41886;BME280;27567;43.084;25.616;2022-11-15T01:29:35;98903.41;;;6.42;100.00
41886;BME280;27567;43.084;25.616;2022-11-15T01:32:19;98901.59;;;6.51;100.00
41886;BME280;27567;43.084;25.616;2022-11-15T01:35:04;98907.59;;;6.53;100.00
41886;BME280;27567;43.084;25.616;2022-11-15T01:37:48;98910.94;;;6.55;100.00
41886;BME280;27567;43.084;25.616;2022-11-15T01:40:31;98902.13;;;6.54;100.00
41886;BME280;27567;43.084;25.616;2022-11-15T01:43:27;98904.13;;;6.52;100.00
41886;BME280;27567;43.084;25.616;2022-11-15T01:49:01;98902.47;;;6.51;100.00
41886;BME280;27567;43.084;25.616;2022-11-15T01:51:45;98907.31;;;6.64;100.00
41886;BME280;27567;43.084;25.616;2022-11-15T01:54:30;98898.84;;;6.60;100.00
41886;BME280;27567;43.084;25.616;2022-11-15T01:57:14;98907.03;;;6.84;100.00
41886;BME280;27567;43.084;25.616;2022-11-15T02:00:00;98899.84;;;6.68;100.00
41886;BME280;27567;43.084;25.616;2022-11-15T02:02:45;98898.47;;;6.64;100.00
41886;BME280;27567;43.084;25.616;2022-11-15T02:05:30;98903.94;;;6.54;100.00
41886;BME280;27567;43.084;25.616;2022-11-15T02:08:14;98895.97;;;6.54;100.00
41886;BME280;27567;43.084;25.616;2022-11-15T02:11:10;98902.22;;;6.79;100.00
41886;BME280;27567;43.084;25.616;2022-11-15T02:13:55;98896.03;;;6.79;100.00
41886;BME280;27567;43.084;25.616;2022-11-15T02:19:48;98897.03;;;6.69;100.00
41886;BME280;27567;43.084;25.616;2022-11-15T02:32:38;98887.53;;;6.75;100.00
41886;BME280;27567;43.084;25.616;2022-11-15T02:35:38;98896.91;;;6.96;100.00
41886;BME280;27567;43.084;25.616;2022-11-15T02:38:37;98890.06;;;7.10;100.00
41886;BME280;27567;43.084;25.616;2022-11-15T02:41:49;98888.91;;;7.12;100.00
41886;BME280;27567;43.084;25.616;2022-11-15T02:44:42;98878.22;;;6.79;100.00
41886;BME280;27567;43.084;25.616;2022-11-15T02:47:28;98881.34;;;6.66;100.00
41886;BME280;27567;43.084;25.616;2022-11-15T02:50:18;98874.03;;;6.68;100.00
41886;BME280;27567;43.084;25.616;2022-11-15T02:53:04;98873.03;;;6.77;100.00
41886;BME280;27567;43.084;25.616;2022-11-15T02:55:50;98865.88;;;6.86;100.00
41886;BME280;27567;43.084;25.616;2022-11-15T03:04:47;98870.88;;;6.73;100.00
41886;BME280;27567;43.084;25.616;2022-11-15T03:13:44;98875.69;;;6.77;100.00
41886;BME280;27567;43.084;25.616;2022-11-15T03:16:40;98865.72;;;6.80;100.00
41886;BME280;27567;43.084;25.616;2022-11-15T03:19:44;98860.91;;;6.91;100.00
41886;BME280;27567;43.084;25.616;2022-11-15T03:22:32;98863.59;;;7.08;100.00
41886;BME280;27567;43.084;25.616;2022-11-15T03:25:21;98862.94;;;7.06;100.00
41886;BME280;27567;43.084;25.616;2022-11-15T03:28:09;98862.06;;;6.72;100.00
41886;BME280;27567;43.084;25.616;2022-11-15T03:30:56;98862.53;;;6.68;100.00
41886;BME280;27567;43.084;25.616;2022-11-15T03:33:40;98865.03;;;6.61;100.00
41886;BME280;27567;43.084;25.616;2022-11-15T03:36:27;98857.88;;;6.86;100.00
41886;BME280;27567;43.084;25.616;2022-11-15T03:39:12;98847.06;;;6.80;100.00
41886;BME280;27567;43.084;25.616;2022-11-15T03:42:17;98853.56;;;6.77;100.00
41886;BME280;27567;43.084;25.616;2022-11-15T03:45:22;98843.56;;;6.71;100.00
41886;BME280;27567;43.084;25.616;2022-11-15T03:48:14;98847.53;;;6.67;100.00
41886;BME280;27567;43.084;25.616;2022-11-15T03:50:59;98848.03;;;6.62;100.00
41886;BME280;27567;43.084;25.616;2022-11-15T03:53:44;98848.00;;;6.54;100.00
41886;BME280;27567;43.084;25.616;2022-11-15T03:56:29;98836.53;;;6.53;100.00
41886;BME280;27567;43.084;25.616;2022-11-15T03:59:13;98836.88;;;6.58;100.00
41886;BME280;27567;43.084;25.616;2022-11-15T04:01:57;98842.72;;;6.70;100.00
41886;BME280;27567;43.084;25.616;2022-11-15T04:04:41;98833.25;;;6.76;100.00
41886;BME280;27567;43.084;25.616;2022-11-15T04:07:25;98833.56;;;6.73;100.00
41886;BME280;27567;43.084;25.616;2022-11-15T04:10:12;98830.22;;;6.71;100.00
41886;BME280;27567;43.084;25.616;2022-11-15T04:12:57;98833.91;;;6.61;100.00
41886;BME280;27567;43.084;25.616;2022-11-15T04:15:41;98831.22;;;6.53;100.00
41886;BME280;27567;43.084;25.616;2022-11-15T04:18:25;98826.06;;;6.76;100.00
41886;BME280;27567;43.084;25.616;2022-11-15T04:21:09;98827.44;;;6.97;100.00
41886;BME280;27567;43.084;25.616;2022-11-15T04:24:12;98833.75;;;6.96;100.00
41886;BME280;27567;43.084;25.616;2022-11-15T04:26:56;98827.41;;;6.64;100.00
41886;BME280;27567;43.084;25.616;2022-11-15T04:29:40;98833.88;;;6.70;100.00
41886;BME280;27567;43.084;25.616;2022-11-15T04:32:24;98827.72;;;6.77;100.00
41886;BME280;27567;43.084;25.616;2022-11-15T04:35:08;98822.59;;;6.76;100.00
41886;BME280;27567;43.084;25.616;2022-11-15T04:37:52;98829.41;;;6.70;100.00
41886;BME280;27567;43.084;25.616;2022-11-15T04:40:37;98836.91;;;6.91;100.00
41886;BME280;27567;43.084;25.616;2022-11-15T04:43:22;98829.25;;;6.88;100.00
41886;BME280;27567;43.084;25.616;2022-11-15T04:46:06;98829.88;;;6.66;100.00
41886;BME280;27567;43.084;25.616;2022-11-15T04:48:51;98831.22;;;6.61;100.00
41886;BME280;27567;43.084;25.616;2022-11-15T04:51:35;98829.56;;;6.60;100.00
41886;BME280;27567;43.084;25.616;2022-11-15T04:54:19;98831.03;;;6.55;100.00
41886;BME280;27567;43.084;25.616;2022-11-15T04:57:03;98834.03;;;6.60;100.00
41886;BME280;27567;43.084;25.616;2022-11-15T04:59:47;98824.88;;;6.54;100.00
41886;BME280;27567;43.084;25.616;2022-11-15T05:02:31;98818.06;;;6.76;100.00
41886;BME280;27567;43.084;25.616;2022-11-15T05:05:35;98821.69;;;6.51;100.00
41886;BME280;27567;43.084;25.616;2022-11-15T05:08:19;98826.66;;;6.37;100.00
41886;BME280;27567;43.084;25.616;2022-11-15T05:11:04;98825.31;;;6.33;100.00
41886;BME280;27567;43.084;25.616;2022-11-15T05:13:48;98820.16;;;6.31;100.00
41886;BME280;27567;43.084;25.616;2022-11-15T05:16:32;98824.72;;;6.47;100.00
41886;BME280;27567;43.084;25.616;2022-11-15T05:19:16;98824.53;;;6.49;100.00
41886;BME280;27567;43.084;25.616;2022-11-15T05:22:00;98819.03;;;6.42;100.00
41886;BME280;27567;43.084;25.616;2022-11-15T05:24:44;98829.06;;;6.82;100.00
41886;BME280;27567;43.084;25.616;2022-11-15T05:27:29;98817.25;;;6.92;100.00
41886;BME280;27567;43.084;25.616;2022-11-15T05:30:13;98827.06;;;6.75;100.00
41886;BME280;27567;43.084;25.616;2022-11-15T05:32:57;98823.38;;;6.60;100.00
41886;BME280;27567;43.084;25.616;2022-11-15T05:35:46;98827.69;;;6.53;100.00
41886;BME280;27567;43.084;25.616;2022-11-15T05:38:33;98829.06;;;6.65;100.00
41886;BME280;27567;43.084;25.616;2022-11-15T05:41:19;98828.25;;;6.81;100.00
41886;BME280;27567;43.084;25.616;2022-11-15T05:44:07;98828.56;;;7.11;100.00
41886;BME280;27567;43.084;25.616;2022-11-15T05:46:53;98823.44;;;7.18;100.00
41886;BME280;27567;43.084;25.616;2022-11-15T05:49:40;98828.44;;;7.21;100.00
41886;BME280;27567;43.084;25.616;2022-11-15T05:52:28;98819.25;;;7.24;100.00
41886;BME280;27567;43.084;25.616;2022-11-15T05:55:14;98827.75;;;7.27;100.00
41886;BME280;27567;43.084;25.616;2022-11-15T05:57:59;98826.94;;;7.10;100.00
41886;BME280;27567;43.084;25.616;2022-11-15T06:00:43;98827.91;;;7.17;100.00
41886;BME280;27567;43.084;25.616;2022-11-15T06:03:28;98824.06;;;7.28;100.00
41886;BME280;27567;43.084;25.616;2022-11-15T06:06:12;98822.06;;;7.39;100.00
41886;BME280;27567;43.084;25.616;2022-11-15T06:08:56;98822.72;;;7.24;100.00
41886;BME280;27567;43.084;25.616;2022-11-15T06:11:40;98830.41;;;7.27;100.00
41886;BME280;27567;43.084;25.616;2022-11-15T06:14:24;98832.25;;;7.27;100.00
41886;BME280;27567;43.084;25.616;2022-11-15T06:17:08;98836.56;;;7.36;100.00
41886;BME280;27567;43.084;25.616;2022-11-15T06:19:52;98832.41;;;7.42;100.00
41886;BME280;27567;43.084;25.616;2022-11-15T06:22:37;98837.38;;;7.61;100.00
41886;BME280;27567;43.084;25.616;2022-11-15T06:25:21;98835.69;;;7.69;100.00
41886;BME280;27567;43.084;25.616;2022-11-15T06:28:05;98836.03;;;7.65;100.00
41886;BME280;27567;43.084;25.616;2022-11-15T06:30:49;98837.56;;;7.51;100.00
41886;BME280;27567;43.084;25.616;2022-11-15T06:33:33;98843.22;;;7.57;100.00
41886;BME280;27567;43.084;25.616;2022-11-15T06:36:17;98834.69;;;7.61;100.00
41886;BME280;27567;43.084;25.616;2022-11-15T06:39:03;98841.03;;;7.60;100.00
41886;BME280;27567;43.084;25.616;2022-11-15T06:41:47;98837.03;;;7.56;100.00
41886;BME280;27567;43.084;25.616;2022-11-15T06:44:31;98844.03;;;7.49;100.00
41886;BME280;27567;43.084;25.616;2022-11-15T06:47:15;98848.56;;;7.40;100.00
41886;BME280;27567;43.084;25.616;2022-11-15T06:49:58;98839.56;;;7.49;100.00
41886;BME280;27567;43.084;25.616;2022-11-15T06:52:43;98843.56;;;7.45;100.00
41886;BME280;27567;43.084;25.616;2022-11-15T06:55:26;98836.88;;;7.58;100.00
41886;BME280;27567;43.084;25.616;2022-11-15T06:58:11;98828.66;;;7.76;100.00
41886;BME280;27567;43.084;25.616;2022-11-15T07:00:59;98836.06;;;7.41;100.00
41886;BME280;27567;43.084;25.616;2022-11-15T07:03:43;98827.75;;;7.44;100.00
41886;BME280;27567;43.084;25.616;2022-11-15T07:06:27;98828.19;;;7.64;100.00
41886;BME280;27567;43.084;25.616;2022-11-15T07:09:11;98826.50;;;7.63;100.00
41886;BME280;27567;43.084;25.616;2022-11-15T07:11:55;98829.38;;;7.53;100.00
41886;BME280;27567;43.084;25.616;2022-11-15T07:14:39;98822.16;;;7.70;100.00
41886;BME280;27567;43.084;25.616;2022-11-15T07:17:23;98829.84;;;7.65;100.00
41886;BME280;27567;43.084;25.616;2022-11-15T07:20:07;98818.44;;;7.88;100.00
41886;BME280;27567;43.084;25.616;2022-11-15T07:22:59;98811.94;;;7.82;100.00
41886;BME280;27567;43.084;25.616;2022-11-15T07:25:43;98818.84;;;7.68;100.00
41886;BME280;27567;43.084;25.616;2022-11-15T07:28:27;98816.63;;;7.80;100.00
41886;BME280;27567;43.084;25.616;2022-11-15T07:31:11;98813.81;;;7.81;100.00
41886;BME280;27567;43.084;25.616;2022-11-15T07:33:56;98817.09;;;7.92;100.00
41886;BME280;27567;43.084;25.616;2022-11-15T07:36:40;98806.16;;;8.18;100.00
41886;BME280;27567;43.084;25.616;2022-11-15T07:39:24;98813.19;;;8.11;100.00
41886;BME280;27567;43.084;25.616;2022-11-15T07:42:07;98812.34;;;8.10;100.00
41886;BME280;27567;43.084;25.616;2022-11-15T07:45:10;98814.66;;;8.13;100.00
41886;BME280;27567;43.084;25.616;2022-11-15T07:47:55;98817.22;;;7.98;100.00
41886;BME280;27567;43.084;25.616;2022-11-15T07:50:42;98807.50;;;8.14;100.00
41886;BME280;27567;43.084;25.616;2022-11-15T07:53:27;98808.56;;;7.96;100.00
41886;BME280;27567;43.084;25.616;2022-11-15T07:56:12;98816.63;;;7.88;100.00
41886;BME280;27567;43.084;25.616;2022-11-15T07:58:56;98810.28;;;7.89;100.00
41886;BME280;27567;43.084;25.616;2022-11-15T08:01:41;98810.81;;;7.76;100.00
41886;BME280;27567;43.084;25.616;2022-11-15T08:04:25;98811.47;;;7.78;100.00
41886;BME280;27567;43.084;25.616;2022-11-15T08:07:09;98808.56;;;7.96;100.00
41886;BME280;27567;43.084;25.616;2022-11-15T08:09:53;98809.97;;;7.76;100.00
41886;BME280;27567;43.084;25.616;2022-11-15T08:12:38;98801.72;;;7.94;100.00
41886;BME280;27567;43.084;25.616;2022-11-15T08:15:22;98797.88;;;7.96;100.00
41886;BME280;27567;43.084;25.616;2022-11-15T08:18:10;98808.84;;;8.10;100.00
41886;BME280;27567;43.084;25.616;2022-11-15T08:20:59;98798.19;;;8.02;100.00
41886;BME280;27567;43.084;25.616;2022-11-15T08:23:43;98798.31;;;8.08;100.00
41886;BME280;27567;43.084;25.616;2022-11-15T08:26:27;98795.13;;;7.81;100.00
41886;BME280;27567;43.084;25.616;2022-11-15T08:29:13;98801.19;;;7.98;100.00
41886;BME280;27567;43.084;25.616;2022-11-15T08:31:57;98792.59;;;7.88;100.00
41886;BME280;27567;43.084;25.616;2022-11-15T08:34:41;98793.59;;;8.19;100.00
41886;BME280;27567;43.084;25.616;2022-11-15T08:37:25;98794.00;;;8.39;100.00
41886;BME280;27567;43.084;25.616;2022-11-15T08:40:10;98787.16;;;8.36;100.00
41886;BME280;27567;43.084;25.616;2022-11-15T08:42:54;98781.94;;;8.43;100.00
41886;BME280;27567;43.084;25.616;2022-11-15T08:52:40;98766.78;;;7.72;100.00
41886;BME280;27567;43.084;25.616;2022-11-15T08:55:24;98768.59;;;7.72;100.00
41886;BME280;27567;43.084;25.616;2022-11-15T08:58:08;98762.72;;;7.85;100.00
41886;BME280;27567;43.084;25.616;2022-11-15T09:00:52;98766.28;;;8.40;100.00
41886;BME280;27567;43.084;25.616;2022-11-15T09:03:36;98751.78;;;8.34;100.00
41886;BME280;27567;43.084;25.616;2022-11-15T09:06:20;98749.31;;;8.24;100.00
41886;BME280;27567;43.084;25.616;2022-11-15T09:09:04;98743.50;;;8.52;100.00
41886;BME280;27567;43.084;25.616;2022-11-15T09:11:48;98733.97;;;8.73;100.00
41886;BME280;27567;43.084;25.616;2022-11-15T09:14:33;98730.97;;;8.76;100.00
41886;BME280;27567;43.084;25.616;2022-11-15T09:17:17;98724.56;;;9.00;100.00
41886;BME280;27567;43.084;25.616;2022-11-15T09:20:01;98731.25;;;8.81;100.00
41886;BME280;27567;43.084;25.616;2022-11-15T09:22:45;98724.09;;;8.97;100.00
41886;BME280;27567;43.084;25.616;2022-11-15T09:25:29;98716.94;;;9.12;100.00
41886;BME280;27567;43.084;25.616;2022-11-15T09:28:13;98722.13;;;8.76;100.00
41886;BME280;27567;43.084;25.616;2022-11-15T09:30:58;98715.66;;;9.38;100.00
41886;BME280;27567;43.084;25.616;2022-11-15T09:33:44;98707.50;;;9.16;100.00
41886;BME280;27567;43.084;25.616;2022-11-15T09:36:28;98712.00;;;9.01;100.00
41886;BME280;27567;43.084;25.616;2022-11-15T09:39:12;98697.38;;;9.12;100.00
41886;BME280;27567;43.084;25.616;2022-11-15T09:50:38;98684.63;;;9.44;100.00
41886;BME280;27567;43.084;25.616;2022-11-15T09:53:29;98671.31;;;9.66;100.00
41886;BME280;27567;43.084;25.616;2022-11-15T09:56:19;98660.63;;;9.66;100.00
41886;BME280;27567;43.084;25.616;2022-11-15T09:59:39;98663.72;;;10.06;100.00
41886;BME280;27567;43.084;25.616;2022-11-15T10:05:25;98654.63;;;10.22;100.00
41886;BME280;27567;43.084;25.616;2022-11-15T10:11:17;98654.19;;;9.30;100.00
41886;BME280;27567;43.084;25.616;2022-11-15T10:14:14;98654.09;;;8.93;100.00
41886;BME280;27567;43.084;25.616;2022-11-15T10:22:56;98642.66;;;8.84;100.00
41886;BME280;27567;43.084;25.616;2022-11-15T10:25:42;98638.97;;;8.47;100.00
41886;BME280;27567;43.084;25.616;2022-11-15T10:28:29;98638.91;;;8.32;100.00
41886;BME280;27567;43.084;25.616;2022-11-15T10:31:23;98636.97;;;8.26;100.00
41886;BME280;27567;43.084;25.616;2022-11-15T10:34:23;98631.31;;;8.67;100.00
41886;BME280;27567;43.084;25.616;2022-11-15T10:37:07;98619.25;;;8.86;100.00
41886;BME280;27567;43.084;25.616;2022-11-15T10:40:06;98623.38;;;8.89;100.00
41886;BME280;27567;43.084;25.616;2022-11-15T10:45:53;98620.66;;;8.21;100.00
41886;BME280;27567;43.084;25.616;2022-11-15T10:48:38;98626.59;;;8.08;100.00
41886;BME280;27567;43.084;25.616;2022-11-15T10:51:26;98611.59;;;8.30;100.00
41886;BME280;27567;43.084;25.616;2022-11-15T10:54:13;98619.34;;;8.17;100.00
41886;BME280;27567;43.084;25.616;2022-11-15T10:57:01;98615.16;;;7.99;100.00
41886;BME280;27567;43.084;25.616;2022-11-15T11:02:55;98605.66;;;8.20;100.00
41886;BME280;27567;43.084;25.616;2022-11-15T11:05:40;98599.94;;;8.23;100.00
41886;BME280;27567;43.084;25.616;2022-11-15T11:08:25;98601.16;;;7.97;100.00
41886;BME280;27567;43.084;25.616;2022-11-15T11:11:08;98605.47;;;7.98;100.00
41886;BME280;27567;43.084;25.616;2022-11-15T11:13:54;98602.69;;;7.91;100.00
41886;BME280;27567;43.084;25.616;2022-11-15T11:16:46;98598.63;;;7.95;100.00
41886;BME280;27567;43.084;25.616;2022-11-15T11:23:00;98591.19;;;8.14;100.00
41886;BME280;27567;43.084;25.616;2022-11-15T11:29:08;98581.59;;;8.20;100.00
41886;BME280;27567;43.084;25.616;2022-11-15T11:37:58;98572.03;;;7.87;100.00
41886;BME280;27567;43.084;25.616;2022-11-15T11:40:56;98571.13;;;7.72;100.00
41886;BME280;27567;43.084;25.616;2022-11-15T11:43:57;98570.75;;;7.75;100.00
41886;BME280;27567;43.084;25.616;2022-11-15T11:46:48;98561.84;;;7.82;100.00
41886;BME280;27567;43.084;25.616;2022-11-15T11:50:15;98550.13;;;7.92;100.00
41886;BME280;27567;43.084;25.616;2022-11-15T11:53:05;98553.38;;;8.02;100.00
41886;BME280;27567;43.084;25.616;2022-11-15T11:55:57;98550.31;;;7.90;100.00
41886;BME280;27567;43.084;25.616;2022-11-15T11:58:44;98547.75;;;7.97;100.00
41886;BME280;27567;43.084;25.616;2022-11-15T12:01:37;98544.38;;;7.80;100.00
41886;BME280;27567;43.084;25.616;2022-11-15T12:04:32;98541.34;;;7.83;100.00
41886;BME280;27567;43.084;25.616;2022-11-15T12:10:28;98543.59;;;7.48;100.00
41886;BME280;27567;43.084;25.616;2022-11-15T12:13:16;98545.00;;;7.59;100.00
41886;BME280;27567;43.084;25.616;2022-11-15T12:16:10;98530.56;;;7.53;100.00
41886;BME280;27567;43.084;25.616;2022-11-15T12:19:03;98524.88;;;7.56;100.00
41886;BME280;27567;43.084;25.616;2022-11-15T12:22:01;98530.97;;;7.42;100.00
41886;BME280;27567;43.084;25.616;2022-11-15T12:31:01;98510.97;;;7.61;100.00
41886;BME280;27567;43.084;25.616;2022-11-15T12:33:47;98503.56;;;7.48;100.00
41886;BME280;27567;43.084;25.616;2022-11-15T12:36:41;98514.84;;;7.58;100.00
41886;BME280;27567;43.084;25.616;2022-11-15T12:52:11;98487.97;;;7.60;100.00
41886;BME280;27567;43.084;25.616;2022-11-15T12:54:57;98487.22;;;7.74;100.00
41886;BME280;27567;43.084;25.616;2022-11-15T12:57:42;98483.19;;;7.55;100.00
41886;BME280;27567;43.084;25.616;2022-11-15T13:03:21;98492.63;;;7.43;100.00
41886;BME280;27567;43.084;25.616;2022-11-15T13:06:09;98487.16;;;7.36;100.00
41886;BME280;27567;43.084;25.616;2022-11-15T13:17:56;98483.00;;;7.33;100.00
41886;BME280;27567;43.084;25.616;2022-11-15T13:20:44;98471.38;;;7.26;100.00
41886;BME280;27567;43.084;25.616;2022-11-15T13:23:28;98470.44;;;7.19;100.00
41886;BME280;27567;43.084;25.616;2022-11-15T13:26:14;98466.69;;;7.28;100.00
41886;BME280;27567;43.084;25.616;2022-11-15T13:29:01;98457.38;;;7.24;100.00
41886;BME280;27567;43.084;25.616;2022-11-15T13:31:46;98460.06;;;7.24;100.00
41886;BME280;27567;43.084;25.616;2022-11-15T13:34:32;98466.59;;;7.21;100.00
41886;BME280;27567;43.084;25.616;2022-11-15T13:40:20;98442.03;;;7.26;100.00
41886;BME280;27567;43.084;25.616;2022-11-15T13:43:27;98443.00;;;7.10;100.00
41886;BME280;27567;43.084;25.616;2022-11-15T13:46:26;98443.72;;;7.04;100.00
41886;BME280;27567;43.084;25.616;2022-11-15T13:49:11;98442.34;;;7.08;100.00
41886;BME280;27567;43.084;25.616;2022-11-15T13:51:55;98446.44;;;7.19;100.00
41886;BME280;27567;43.084;25.616;2022-11-15T13:54:57;98439.19;;;7.04;100.00
41886;BME280;27567;43.084;25.616;2022-11-15T14:00:40;98436.72;;;7.03;100.00
41886;BME280;27567;43.084;25.616;2022-11-15T14:03:28;98420.03;;;7.09;100.00
41886;BME280;27567;43.084;25.616;2022-11-15T14:06:14;98428.94;;;7.16;100.00
41886;BME280;27567;43.084;25.616;2022-11-15T14:15:37;98416.97;;;7.12;100.00
41886;BME280;27567;43.084;25.616;2022-11-15T14:18:44;98418.22;;;7.01;100.00
41886;BME280;27567;43.084;25.616;2022-11-15T14:21:29;98417.13;;;6.87;100.00
41886;BME280;27567;43.084;25.616;2022-11-15T14:24:20;98421.41;;;6.97;100.00
41886;BME280;27567;43.084;25.616;2022-11-15T14:30:02;98408.00;;;6.82;100.00
41886;BME280;27567;43.084;25.616;2022-11-15T14:32:48;98418.00;;;6.80;100.00
41886;BME280;27567;43.084;25.616;2022-11-15T14:35:32;98419.09;;;6.70;100.00
41886;BME280;27567;43.084;25.616;2022-11-15T14:38:16;98420.59;;;6.65;100.00
41886;BME280;27567;43.084;25.616;2022-11-15T14:41:00;98414.44;;;6.64;100.00
41886;BME280;27567;43.084;25.616;2022-11-15T14:43:44;98429.59;;;6.64;100.00
41886;BME280;27567;43.084;25.616;2022-11-15T14:46:28;98424.63;;;6.60;100.00
41886;BME280;27567;43.084;25.616;2022-11-15T14:49:11;98423.97;;;6.58;100.00
41886;BME280;27567;43.084;25.616;2022-11-15T14:51:57;98420.81;;;6.55;100.00
41886;BME280;27567;43.084;25.616;2022-11-15T14:54:40;98423.09;;;6.66;100.00
41886;BME280;27567;43.084;25.616;2022-11-15T14:57:24;98417.75;;;6.66;100.00
41886;BME280;27567;43.084;25.616;2022-11-15T15:00:09;98414.25;;;6.66;100.00
41886;BME280;27567;43.084;25.616;2022-11-15T15:02:54;98410.44;;;6.68;100.00
41886;BME280;27567;43.084;25.616;2022-11-15T15:05:40;98415.03;;;6.74;100.00
41886;BME280;27567;43.084;25.616;2022-11-15T15:08:24;98410.44;;;6.68;100.00
41886;BME280;27567;43.084;25.616;2022-11-15T15:11:20;98407.81;;;6.60;100.00
41886;BME280;27567;43.084;25.616;2022-11-15T15:14:05;98398.34;;;6.57;100.00
41886;BME280;27567;43.084;25.616;2022-11-15T15:16:48;98400.47;;;6.62;100.00
41886;BME280;27567;43.084;25.616;2022-11-15T15:19:33;98401.81;;;6.58;100.00
41886;BME280;27567;43.084;25.616;2022-11-15T15:22:19;98405.41;;;6.73;100.00
41886;BME280;27567;43.084;25.616;2022-11-15T15:28:00;98398.47;;;6.64;100.00
41886;BME280;27567;43.084;25.616;2022-11-15T15:30:44;98399.28;;;6.65;100.00
41886;BME280;27567;43.084;25.616;2022-11-15T15:33:28;98395.25;;;6.69;100.00
41886;BME280;27567;43.084;25.616;2022-11-15T15:36:14;98399.28;;;6.65;100.00
41886;BME280;27567;43.084;25.616;2022-11-15T15:39:00;98391.13;;;6.66;100.00
41886;BME280;27567;43.084;25.616;2022-11-15T15:41:44;98396.22;;;6.76;100.00
41886;BME280;27567;43.084;25.616;2022-11-15T15:44:28;98395.56;;;6.74;100.00
41886;BME280;27567;43.084;25.616;2022-11-15T15:47:13;98394.56;;;6.75;100.00
41886;BME280;27567;43.084;25.616;2022-11-15T15:49:59;98395.75;;;6.72;100.00
41886;BME280;27567;43.084;25.616;2022-11-15T15:52:43;98392.66;;;6.60;100.00
41886;BME280;27567;43.084;25.616;2022-11-15T15:55:27;98385.22;;;6.79;100.00
41886;BME280;27567;43.084;25.616;2022-11-15T15:58:11;98392.44;;;6.70;100.00
41886;BME280;27567;43.084;25.616;2022-11-15T16:00:55;98388.59;;;6.73;100.00
41886;BME280;27567;43.084;25.616;2022-11-15T16:03:39;98397.81;;;6.62;100.00
41886;BME280;27567;43.084;25.616;2022-11-15T16:06:35;98397.63;;;6.64;100.00
41886;BME280;27567;43.084;25.616;2022-11-15T16:09:20;98388.81;;;6.63;100.00
41886;BME280;27567;43.084;25.616;2022-11-15T16:12:34;98382.84;;;6.53;100.00
41886;BME280;27567;43.084;25.616;2022-11-15T16:15:18;98380.38;;;6.51;100.00
41886;BME280;27567;43.084;25.616;2022-11-15T16:18:04;98381.81;;;6.62;100.00
41886;BME280;27567;43.084;25.616;2022-11-15T16:20:49;98385.47;;;6.61;100.00
41886;BME280;27567;43.084;25.616;2022-11-15T16:23:39;98373.88;;;6.54;100.00
41886;BME280;27567;43.084;25.616;2022-11-15T16:26:26;98371.03;;;6.55;100.00
41886;BME280;27567;43.084;25.616;2022-11-15T16:29:11;98369.50;;;6.61;100.00
41886;BME280;27567;43.084;25.616;2022-11-15T16:31:55;98358.53;;;6.56;100.00
41886;BME280;27567;43.084;25.616;2022-11-15T16:34:39;98355.56;;;6.51;100.00
41886;BME280;27567;43.084;25.616;2022-11-15T16:37:24;98361.72;;;6.51;100.00
41886;BME280;27567;43.084;25.616;2022-11-15T16:43:07;98370.25;;;6.46;100.00